الصفحة الرئيسية
METAR-TAF:

METAR-TAF

مطار :

Normanton, أستراليا

دائرة عرض: 17-41-06S, خط طول: 141-04-12E, ارتفاع: 22 متر

مراقبة الطقس الحالي

تاريخ ووقت الإصدار 1ساعة و 7 دقيقة قبل الساعة 14:00UTC
ريح 9 عقدة من الجنوب
درجة الحرارة 27°درجة مئوية
الرطوبة 30%
ضغط 1010 hPa
الرؤية 10 كم أو أكثر

METAR: YNTN 111400Z AUTO 18009KT 9999 // NCD 27/08 Q1010

زمن: 01:07 (15:07 UTC)


TAF: مفقودة

أرصاد الطقس والتوقعات من أكثر من 4000 مطار (تقارير الطقس للمطار METAR والتنبؤ بالطقس بالمطارTAF).

المحطات المتاحة هي النقط الصفراء والحمراء على الخريطة.

حرك المؤشر فوق النقطة لمعرفة اسم المحطة.

ثم انقر لمعرفة أرصاد وتوقعات الطقس.

لتغيير الخارطة: اضغط على الأزرار الخضراء مع رمز الصليب الأسود للتكبير. على الزر الأخضر مع شرطة للتصغير، أو على الأسهم الخضراء للخرائط المجاورة.


METAR-TAF: